Time;durP1;ratioP1;P1;durP2;ratioP2;P2;SDS_P1;SDS_P2;PMS_P1;PMS_P2;Temp;Humidity;BMP_temperature;BMP_pressure;BME280_temperature;BME280_humidity;BME280_pressure;Samples;Min_cycle;Max_cycle;Signal;HPM_P1;HPM_P2
2023/06/09 00:02:19;;;;;;;;;;;21.90;52.60;;;;;;5050283;28;19987;-69
2023/06/09 00:04:45;;;;;;;;;;;21.90;52.70;;;;;;5050056;28;19928;-68
2023/06/09 00:07:11;;;;;;;;;;;21.90;52.60;;;;;;5084090;28;20249;-69
2023/06/09 00:09:36;;;;;;;;;;;21.90;52.70;;;;;;5051528;28;19921;-69
2023/06/09 00:12:02;;;;;;;;;;;21.90;52.60;;;;;;5051884;28;19921;-69
2023/06/09 00:14:28;;;;;;;;;;;21.90;52.60;;;;;;5055218;28;20014;-69
2023/06/09 00:16:55;;;;;;;;;;;21.90;52.70;;;;;;5053826;28;20331;-69
2023/06/09 00:19:22;;;;;;;;;;;21.90;52.70;;;;;;5070998;28;19921;-69
2023/06/09 00:21:51;;;;;;;;;;;21.80;52.60;;;;;;5054227;28;19986;-69
2023/06/09 00:24:19;;;;;;;;;;;21.90;52.70;;;;;;5053914;28;19928;-69
2023/06/09 00:26:46;;;;;;;;;;;21.90;52.60;;;;;;5054011;28;20431;-69
2023/06/09 00:29:12;;;;;;;;;;;21.80;52.60;;;;;;5037088;28;19927;-69
2023/06/09 00:31:37;;;;;;;;;;;21.80;52.60;;;;;;5087144;28;19924;-69
2023/06/09 00:34:03;;;;;;;;;;;21.80;52.60;;;;;;5087239;28;20374;-69
2023/06/09 00:36:28;;;;;;;;;;;21.80;52.60;;;;;;5087349;28;19925;-69
2023/06/09 00:38:53;;;;;;;;;;;21.80;52.60;;;;;;5053827;28;19928;-69
2023/06/09 00:41:19;;;;;;;;;;;21.70;52.60;;;;;;5087310;28;20023;-69
2023/06/09 00:43:46;;;;;;;;;;;21.70;52.60;;;;;;5053404;28;19921;-69
2023/06/09 00:46:11;;;;;;;;;;;21.80;52.60;;;;;;5053562;28;20011;-69
2023/06/09 00:48:37;;;;;;;;;;;21.70;52.60;;;;;;5053577;28;19975;-69
2023/06/09 00:51:03;;;;;;;;;;;21.80;52.60;;;;;;5054687;28;20387;-69
2023/06/09 00:53:28;;;;;;;;;;;21.70;52.60;;;;;;5053279;28;19927;-69
2023/06/09 00:55:54;;;;;;;;;;;21.80;52.70;;;;;;5053202;28;19952;-69
2023/06/09 00:58:20;;;;;;;;;;;21.70;52.60;;;;;;5054430;28;20281;-69
2023/06/09 01:00:46;;;;;;;;;;;21.70;52.60;;;;;;5086820;28;20364;-69
2023/06/09 01:03:11;;;;;;;;;;;21.70;52.60;;;;;;5054280;28;19928;-69
2023/06/09 01:05:38;;;;;;;;;;;21.70;52.60;;;;;;5086226;28;19924;-69
2023/06/09 01:08:08;;;;;;;;;;;21.60;52.50;;;;;;5052975;28;20492;-69
2023/06/09 01:10:38;;;;;;;;;;;21.60;52.60;;;;;;5053138;28;19920;-69
2023/06/09 01:15:46;;;;;;;;;;;21.60;52.60;;;;;;5110242;27;19918;-69
2023/06/09 01:18:14;;;;;;;;;;;21.70;52.60;;;;;;5108820;28;20371;-69
2023/06/09 01:23:40;;;;;;;;;;;21.60;52.60;;;;;;5110256;27;20278;-69
2023/06/09 01:26:06;;;;;;;;;;;21.60;52.60;;;;;;5108628;28;20508;-69
2023/06/09 01:28:33;;;;;;;;;;;21.60;52.60;;;;;;5108813;28;19928;-68
2023/06/09 01:31:00;;;;;;;;;;;21.60;52.60;;;;;;5109183;28;20406;-69
2023/06/09 01:33:26;;;;;;;;;;;21.60;52.70;;;;;;5108746;28;19927;-69
2023/06/09 01:35:52;;;;;;;;;;;21.60;52.70;;;;;;5110099;28;20310;-69
2023/06/09 01:38:18;;;;;;;;;;;21.50;52.60;;;;;;5108619;28;19920;-69
2023/06/09 01:40:44;;;;;;;;;;;21.60;52.70;;;;;;5108983;28;20351;-69
2023/06/09 01:43:09;;;;;;;;;;;21.50;52.60;;;;;;5108431;28;19977;-69
2023/06/09 01:45:35;;;;;;;;;;;21.50;52.60;;;;;;5108628;28;20379;-69
2023/06/09 01:48:07;;;;;;;;;;;21.50;52.60;;;;;;5108407;28;19920;-69
2023/06/09 01:50:37;;;;;;;;;;;21.50;52.60;;;;;;5108493;28;19919;-69
2023/06/09 01:53:09;;;;;;;;;;;21.50;52.60;;;;;;5108390;28;20015;-69
2023/06/09 01:55:38;;;;;;;;;;;21.50;52.60;;;;;;5108749;28;20256;-69
2023/06/09 01:58:07;;;;;;;;;;;21.50;52.60;;;;;;5108339;28;19920;-69
2023/06/09 02:00:33;;;;;;;;;;;21.50;52.60;;;;;;5108683;28;19931;-69
2023/06/09 02:02:59;;;;;;;;;;;21.40;52.60;;;;;;5108089;28;19924;-69
2023/06/09 02:05:25;;;;;;;;;;;21.50;52.60;;;;;;5108575;28;19928;-69
2023/06/09 02:07:53;;;;;;;;;;;21.40;52.60;;;;;;5108142;28;19920;-69
2023/06/09 02:10:21;;;;;;;;;;;21.40;52.60;;;;;;5109302;28;19931;-69
2023/06/09 02:12:46;;;;;;;;;;;21.40;52.60;;;;;;5108328;28;20006;-69
2023/06/09 02:15:12;;;;;;;;;;;21.40;52.70;;;;;;5108040;28;20357;-69
2023/06/09 02:17:39;;;;;;;;;;;21.40;52.70;;;;;;5142480;27;19943;-69
2023/06/09 02:20:08;;;;;;;;;;;21.40;52.70;;;;;;5108204;28;19924;-69
2023/06/09 02:22:34;;;;;;;;;;;21.40;52.60;;;;;;5123254;28;19923;-69
2023/06/09 02:24:59;;;;;;;;;;;21.30;52.60;;;;;;5129418;28;20474;-69
2023/06/09 02:27:25;;;;;;;;;;;21.40;52.70;;;;;;5129466;28;20409;-69
2023/06/09 02:29:50;;;;;;;;;;;21.30;52.60;;;;;;5111068;28;20390;-69
2023/06/09 02:32:16;;;;;;;;;;;21.40;52.70;;;;;;5145823;27;20254;-69
2023/06/09 02:34:41;;;;;;;;;;;21.30;52.60;;;;;;5097442;28;19924;-69
2023/06/09 02:37:07;;;;;;;;;;;21.40;52.80;;;;;;5131533;27;20299;-69
2023/06/09 02:39:33;;;;;;;;;;;21.30;52.70;;;;;;5097323;28;19926;-69
2023/06/09 02:41:58;;;;;;;;;;;21.30;52.70;;;;;;5115438;28;19979;-69
2023/06/09 02:44:24;;;;;;;;;;;21.30;52.60;;;;;;5131606;27;19920;-69
2023/06/09 02:46:49;;;;;;;;;;;21.30;52.70;;;;;;5131712;27;19963;-69
2023/06/09 02:49:16;;;;;;;;;;;21.30;52.60;;;;;;5097381;28;19989;-69
2023/06/09 02:51:42;;;;;;;;;;;21.30;52.70;;;;;;5097374;28;19927;-69
2023/06/09 02:54:07;;;;;;;;;;;21.30;52.70;;;;;;5115455;28;19920;-69
2023/06/09 02:56:33;;;;;;;;;;;21.20;52.60;;;;;;5097239;28;19927;-69
2023/06/09 02:58:59;;;;;;;;;;;21.20;52.60;;;;;;5096909;28;20059;-69
2023/06/09 03:01:27;;;;;;;;;;;21.20;52.70;;;;;;5115177;28;19971;-69
2023/06/09 03:03:52;;;;;;;;;;;21.20;52.70;;;;;;5096897;28;19931;-69
2023/06/09 03:06:19;;;;;;;;;;;21.20;52.70;;;;;;5096977;28;20279;-69
2023/06/09 03:08:45;;;;;;;;;;;21.20;52.70;;;;;;5096766;28;19920;-69
2023/06/09 03:11:10;;;;;;;;;;;21.20;52.80;;;;;;5114850;28;19965;-69
2023/06/09 03:13:36;;;;;;;;;;;21.20;52.80;;;;;;5096662;28;20250;-69
2023/06/09 03:16:03;;;;;;;;;;;21.20;52.80;;;;;;5114892;28;20076;-69
2023/06/09 03:18:29;;;;;;;;;;;21.20;52.90;;;;;;5096953;28;20381;-69
2023/06/09 03:20:55;;;;;;;;;;;21.20;52.90;;;;;;5096189;28;20020;-71
2023/06/09 03:23:21;;;;;;;;;;;21.10;52.80;;;;;;5114778;28;20398;-69
2023/06/09 03:25:49;;;;;;;;;;;21.10;52.80;;;;;;5114608;28;19919;-69
2023/06/09 03:28:15;;;;;;;;;;;21.10;52.80;;;;;;5114630;28;20068;-69
2023/06/09 03:30:41;;;;;;;;;;;21.10;53.60;;;;;;5096600;28;20010;-69
2023/06/09 03:33:06;;;;;;;;;;;21.10;52.80;;;;;;5096284;28;19926;-69
2023/06/09 03:35:31;;;;;;;;;;;21.10;52.80;;;;;;5096595;28;19923;-69
2023/06/09 03:37:57;;;;;;;;;;;21.10;52.90;;;;;;5096099;28;20287;-69
2023/06/09 03:40:23;;;;;;;;;;;21.10;52.90;;;;;;5096139;28;19920;-69
2023/06/09 03:42:48;;;;;;;;;;;21.00;52.80;;;;;;5096062;28;19990;-69
2023/06/09 03:45:14;;;;;;;;;;;21.10;52.90;;;;;;5095347;28;20394;-69
2023/06/09 03:47:39;;;;;;;;;;;21.00;52.90;;;;;;5096271;28;20379;-69
2023/06/09 03:50:05;;;;;;;;;;;21.00;52.90;;;;;;5114183;28;19919;-69
2023/06/09 03:52:31;;;;;;;;;;;21.00;52.90;;;;;;5096078;28;19926;-69
2023/06/09 03:54:56;;;;;;;;;;;21.00;52.90;;;;;;5096195;28;20006;-69
2023/06/09 03:57:22;;;;;;;;;;;21.00;53.00;;;;;;5114045;28;19970;-69
2023/06/09 03:59:47;;;;;;;;;;;21.00;53.00;;;;;;5095763;28;19920;-69
2023/06/09 04:02:13;;;;;;;;;;;21.00;53.00;;;;;;5113813;28;19924;-69
2023/06/09 04:04:38;;;;;;;;;;;21.00;53.00;;;;;;5096095;28;19920;-69
2023/06/09 04:07:04;;;;;;;;;;;21.00;53.00;;;;;;5095556;28;20366;-69
2023/06/09 04:09:32;;;;;;;;;;;20.90;52.90;;;;;;5095974;28;19955;-69
2023/06/09 04:11:57;;;;;;;;;;;21.00;53.00;;;;;;5095481;28;19919;-69
2023/06/09 04:14:23;;;;;;;;;;;21.00;53.00;;;;;;5113754;28;19920;-69
2023/06/09 04:16:48;;;;;;;;;;;20.90;52.90;;;;;;5129687;27;20327;-70
2023/06/09 04:19:14;;;;;;;;;;;20.90;52.90;;;;;;5095920;28;19919;-69
2023/06/09 04:21:39;;;;;;;;;;;20.90;53.00;;;;;;5095092;28;20375;-73
2023/06/09 04:24:05;;;;;;;;;;;21.00;53.00;;;;;;5095091;28;20044;-69
2023/06/09 04:26:32;;;;;;;;;;;20.90;53.00;;;;;;5095337;28;19973;-69
2023/06/09 04:28:58;;;;;;;;;;;20.90;53.00;;;;;;5113435;28;20019;-73
2023/06/09 04:31:23;;;;;;;;;;;20.90;53.00;;;;;;5095586;28;19919;-69
2023/06/09 04:33:51;;;;;;;;;;;20.90;53.00;;;;;;5129202;27;19969;-69
2023/06/09 04:36:17;;;;;;;;;;;20.90;53.10;;;;;;5095340;28;19965;-69
2023/06/09 04:38:45;;;;;;;;;;;20.90;53.10;;;;;;5095059;28;19923;-69
2023/06/09 04:41:11;;;;;;;;;;;20.90;53.80;;;;;;5113193;28;20014;-69
2023/06/09 04:43:39;;;;;;;;;;;20.90;53.10;;;;;;5095231;28;19920;-69
2023/06/09 04:46:05;;;;;;;;;;;20.80;53.10;;;;;;5094981;28;20448;-69
2023/06/09 04:48:33;;;;;;;;;;;20.90;53.10;;;;;;5095139;28;20214;-69
2023/06/09 04:51:00;;;;;;;;;;;20.80;53.10;;;;;;5129051;27;19927;-69
2023/06/09 04:53:26;;;;;;;;;;;20.80;53.10;;;;;;5095122;28;19919;-73
2023/06/09 04:55:52;;;;;;;;;;;20.90;53.20;;;;;;5094664;28;19924;-69
2023/06/09 04:58:17;;;;;;;;;;;20.80;53.20;;;;;;5113276;28;19926;-69
2023/06/09 05:00:43;;;;;;;;;;;20.80;53.20;;;;;;5129089;27;19920;-69
2023/06/09 05:03:13;;;;;;;;;;;20.90;53.30;;;;;;5128746;27;20302;-69
2023/06/09 05:05:40;;;;;;;;;;;20.80;53.20;;;;;;5112888;28;19927;-69
2023/06/09 05:08:05;;;;;;;;;;;20.80;53.30;;;;;;5094682;28;19920;-69
2023/06/09 05:10:31;;;;;;;;;;;20.80;53.30;;;;;;5094756;28;19927;-69
2023/06/09 05:12:56;;;;;;;;;;;20.80;53.30;;;;;;5094860;28;20355;-69
2023/06/09 05:15:23;;;;;;;;;;;20.80;53.30;;;;;;5094477;28;20363;-69
2023/06/09 05:17:49;;;;;;;;;;;20.80;53.30;;;;;;5094880;28;19973;-69
2023/06/09 05:20:15;;;;;;;;;;;20.80;53.30;;;;;;5112939;28;20309;-69
2023/06/09 05:22:41;;;;;;;;;;;20.80;53.30;;;;;;5112495;28;19970;-69
2023/06/09 05:25:09;;;;;;;;;;;20.80;53.30;;;;;;5094690;28;19919;-69
2023/06/09 05:27:34;;;;;;;;;;;20.80;53.40;;;;;;5094504;28;20010;-69
2023/06/09 05:30:00;;;;;;;;;;;20.80;53.40;;;;;;5094614;28;19972;-69
2023/06/09 05:32:25;;;;;;;;;;;20.80;53.50;;;;;;5094461;28;20342;-69
2023/06/09 05:34:51;;;;;;;;;;;20.80;53.40;;;;;;5094317;28;19920;-69
2023/06/09 05:37:16;;;;;;;;;;;20.80;53.40;;;;;;5094644;28;20332;-69
2023/06/09 05:39:42;;;;;;;;;;;20.80;53.50;;;;;;5112737;28;19978;-69
2023/06/09 05:42:08;;;;;;;;;;;20.80;53.40;;;;;;5093139;28;19924;-70
2023/06/09 05:44:33;;;;;;;;;;;20.80;53.50;;;;;;5093171;28;19920;-73
2023/06/09 05:46:58;;;;;;;;;;;20.80;53.50;;;;;;5091636;28;19930;-66
2023/06/09 05:49:24;;;;;;;;;;;20.80;53.70;;;;;;5110883;28;20006;-69
2023/06/09 05:51:50;;;;;;;;;;;20.80;54.60;;;;;;5092906;28;19920;-65
2023/06/09 05:54:16;;;;;;;;;;;20.80;53.90;;;;;;5092118;28;19919;-65
2023/06/09 05:56:44;;;;;;;;;;;20.80;54.00;;;;;;5092379;28;19920;-71
2023/06/09 05:59:10;;;;;;;;;;;20.90;54.10;;;;;;5090941;28;19927;-69
2023/06/09 06:01:36;;;;;;;;;;;20.90;54.00;;;;;;5086780;28;19923;-70
2023/06/09 06:04:01;;;;;;;;;;;20.90;53.80;;;;;;5091145;28;20298;-69
2023/06/09 06:06:27;;;;;;;;;;;20.90;53.90;;;;;;5091278;28;20282;-69
2023/06/09 06:08:52;;;;;;;;;;;20.90;53.90;;;;;;5090915;28;20863;-72
2023/06/09 06:11:18;;;;;;;;;;;21.00;54.00;;;;;;5092973;28;19972;-68
2023/06/09 06:13:46;;;;;;;;;;;21.00;54.10;;;;;;5091374;28;19923;-69
2023/06/09 06:16:11;;;;;;;;;;;21.00;54.10;;;;;;5091977;28;19927;-70
2023/06/09 06:18:37;;;;;;;;;;;20.90;54.20;;;;;;5092411;28;19919;-70
2023/06/09 06:21:03;;;;;;;;;;;21.00;54.20;;;;;;5092974;28;19920;-67
2023/06/09 06:23:28;;;;;;;;;;;21.00;54.30;;;;;;5091483;28;20432;-71
2023/06/09 06:25:53;;;;;;;;;;;21.00;54.30;;;;;;5091290;28;19919;-70
2023/06/09 06:28:19;;;;;;;;;;;21.00;54.40;;;;;;5086945;28;20569;-70
2023/06/09 06:30:44;;;;;;;;;;;21.00;54.40;;;;;;5077570;28;19920;-70
2023/06/09 06:33:10;;;;;;;;;;;21.00;54.60;;;;;;5113860;27;20387;-70
2023/06/09 06:35:36;;;;;;;;;;;21.00;54.60;;;;;;5077302;28;20383;-70
2023/06/09 06:38:01;;;;;;;;;;;21.00;54.70;;;;;;5088359;28;19928;-70
2023/06/09 06:40:27;;;;;;;;;;;21.00;55.00;;;;;;5111283;27;20458;-70
2023/06/09 06:42:53;;;;;;;;;;;21.10;54.60;;;;;;5079863;28;19924;-69
2023/06/09 06:45:19;;;;;;;;;;;21.00;54.60;;;;;;5094898;28;19969;-69
2023/06/09 06:47:45;;;;;;;;;;;21.10;54.80;;;;;;5102191;27;19924;-69
2023/06/09 06:50:11;;;;;;;;;;;21.10;54.80;;;;;;5092353;28;19996;-69
2023/06/09 06:52:36;;;;;;;;;;;21.10;54.80;;;;;;5079236;28;19928;-67
2023/06/09 06:55:02;;;;;;;;;;;21.10;55.20;;;;;;5093487;28;19924;-68
2023/06/09 06:57:28;;;;;;;;;;;21.10;55.30;;;;;;5076346;28;20417;-68
2023/06/09 06:59:53;;;;;;;;;;;21.10;55.20;;;;;;5092813;28;19924;-66
2023/06/09 07:02:19;;;;;;;;;;;21.10;55.20;;;;;;5073903;28;19926;-70
2023/06/09 07:04:44;;;;;;;;;;;21.10;55.20;;;;;;5095955;28;20389;-71
2023/06/09 07:07:10;;;;;;;;;;;21.10;55.20;;;;;;5075971;28;19977;-71
2023/06/09 07:09:35;;;;;;;;;;;21.20;55.30;;;;;;5078185;28;19924;-72
2023/06/09 07:12:01;;;;;;;;;;;21.20;55.10;;;;;;5099052;28;20423;-69
2023/06/09 07:14:28;;;;;;;;;;;21.10;54.90;;;;;;5098884;28;19919;-69
2023/06/09 07:16:53;;;;;;;;;;;21.10;55.10;;;;;;5081546;28;19924;-72
2023/06/09 07:19:19;;;;;;;;;;;21.20;55.20;;;;;;5075662;28;20366;-72
2023/06/09 07:21:44;;;;;;;;;;;21.10;54.90;;;;;;5077089;28;19928;-66
2023/06/09 07:24:10;;;;;;;;;;;21.20;55.40;;;;;;5085717;28;19931;-66
2023/06/09 07:26:35;;;;;;;;;;;21.20;55.50;;;;;;5097008;28;19923;-68
2023/06/09 07:29:01;;;;;;;;;;;21.20;55.40;;;;;;5095790;28;19952;-68
2023/06/09 07:31:26;;;;;;;;;;;21.20;55.30;;;;;;5093209;28;20379;-68
2023/06/09 07:33:52;;;;;;;;;;;21.20;55.30;;;;;;5069744;28;19928;-72
2023/06/09 07:36:19;;;;;;;;;;;21.30;55.60;;;;;;5065254;28;20570;-69
2023/06/09 07:38:46;;;;;;;;;;;21.30;55.40;;;;;;5099028;27;19970;-71
2023/06/09 07:41:12;;;;;;;;;;;21.30;55.60;;;;;;5083012;28;19972;-70
2023/06/09 07:43:37;;;;;;;;;;;21.30;55.40;;;;;;5068677;28;19959;-69
2023/06/09 07:46:03;;;;;;;;;;;21.30;55.50;;;;;;5082651;28;20015;-71
2023/06/09 07:48:28;;;;;;;;;;;21.30;55.30;;;;;;5099325;27;19920;-69
2023/06/09 07:50:54;;;;;;;;;;;21.30;55.30;;;;;;5074873;28;20409;-71
2023/06/09 07:53:21;;;;;;;;;;;21.30;55.70;;;;;;5070011;28;19951;-68
2023/06/09 07:55:46;;;;;;;;;;;21.30;55.50;;;;;;5103716;27;19926;-70
2023/06/09 07:58:12;;;;;;;;;;;21.30;55.60;;;;;;5085954;28;19928;-67
2023/06/09 08:00:37;;;;;;;;;;;21.30;55.60;;;;;;5089384;28;20398;-68
2023/06/09 08:03:03;;;;;;;;;;;21.40;55.80;;;;;;5072223;28;19935;-68
2023/06/09 08:05:30;;;;;;;;;;;21.40;56.00;;;;;;5071052;28;19959;-69
2023/06/09 08:07:55;;;;;;;;;;;21.40;55.90;;;;;;5086748;28;19924;-66
2023/06/09 08:10:21;;;;;;;;;;;21.40;55.70;;;;;;5074525;28;19930;-67
2023/06/09 08:12:48;;;;;;;;;;;21.40;55.90;;;;;;5067829;28;20465;-66
2023/06/09 08:15:14;;;;;;;;;;;21.40;56.10;;;;;;5067146;28;20654;-68
2023/06/09 08:17:39;;;;;;;;;;;21.40;55.90;;;;;;5088621;28;19928;-64
2023/06/09 08:20:05;;;;;;;;;;;21.40;56.30;;;;;;5069275;28;20299;-67
2023/06/09 08:22:31;;;;;;;;;;;21.40;56.50;;;;;;5069476;28;20167;-70
2023/06/09 08:24:57;;;;;;;;;;;21.50;56.60;;;;;;5088213;28;19920;-71
2023/06/09 08:27:23;;;;;;;;;;;21.40;56.40;;;;;;5097884;27;20681;-69
2023/06/09 08:29:49;;;;;;;;;;;21.50;56.80;;;;;;5073474;28;19975;-75
2023/06/09 08:32:15;;;;;;;;;;;21.50;56.60;;;;;;5105745;27;19924;-75
2023/06/09 08:34:41;;;;;;;;;;;21.50;56.60;;;;;;5090292;28;20276;-74
2023/06/09 08:37:07;;;;;;;;;;;21.50;56.40;;;;;;5106318;27;19980;-72
2023/06/09 08:39:33;;;;;;;;;;;21.60;56.30;;;;;;5078525;28;20529;-72
2023/06/09 08:42:01;;;;;;;;;;;21.60;56.30;;;;;;5104372;27;20135;-72
2023/06/09 08:44:28;;;;;;;;;;;21.60;56.50;;;;;;5075126;28;19924;-73
2023/06/09 08:46:56;;;;;;;;;;;21.70;56.90;;;;;;5076755;28;19971;-69
2023/06/09 08:49:21;;;;;;;;;;;21.70;57.30;;;;;;5106374;27;19934;-68
2023/06/09 08:51:47;;;;;;;;;;;21.70;57.30;;;;;;5070419;28;19924;-70
2023/06/09 08:54:15;;;;;;;;;;;21.70;57.20;;;;;;5092136;28;19927;-66
2023/06/09 08:56:41;;;;;;;;;;;21.70;57.20;;;;;;5071254;28;19924;-70
2023/06/09 08:59:06;;;;;;;;;;;21.80;57.40;;;;;;5070301;28;20473;-69
2023/06/09 09:01:33;;;;;;;;;;;21.70;57.20;;;;;;5071001;28;19932;-68
2023/06/09 09:03:58;;;;;;;;;;;21.80;56.90;;;;;;5091377;28;20053;-69
2023/06/09 09:06:24;;;;;;;;;;;21.70;56.90;;;;;;5074688;28;20414;-67
2023/06/09 09:08:49;;;;;;;;;;;21.80;57.50;;;;;;5073301;28;19976;-72
2023/06/09 09:11:15;;;;;;;;;;;21.80;57.60;;;;;;5072221;28;20446;-76
2023/06/09 09:13:40;;;;;;;;;;;21.80;57.70;;;;;;5071771;28;19958;-67
2023/06/09 09:16:10;;;;;;;;;;;21.90;58.30;;;;;;5088768;28;20026;-70
2023/06/09 09:18:35;;;;;;;;;;;21.90;58.10;;;;;;5068279;28;19924;-67
2023/06/09 09:21:01;;;;;;;;;;;21.90;58.60;;;;;;5063945;28;20610;-71
2023/06/09 09:23:29;;;;;;;;;;;22.00;58.10;;;;;;5078226;28;19939;-72
2023/06/09 09:25:55;;;;;;;;;;;22.00;57.90;;;;;;5088489;28;19960;-71
2023/06/09 09:28:20;;;;;;;;;;;22.00;58.20;;;;;;5101818;28;20007;-73
2023/06/09 09:33:27;;;;;;;;;;;22.10;58.30;;;;;;5086383;27;19925;-68
2023/06/09 09:35:54;;;;;;;;;;;22.10;58.90;;;;;;5089441;28;20681;-65
2023/06/09 09:38:20;;;;;;;;;;;22.10;58.60;;;;;;5084744;28;19924;-73
2023/06/09 09:40:47;;;;;;;;;;;22.10;58.60;;;;;;5090949;28;19931;-69
2023/06/09 09:43:14;;;;;;;;;;;22.10;58.40;;;;;;5120047;27;19932;-71
2023/06/09 09:45:41;;;;;;;;;;;22.20;58.80;;;;;;5085251;28;19920;-69
2023/06/09 09:48:11;;;;;;;;;;;22.20;58.60;;;;;;5085030;28;20001;-71
2023/06/09 09:50:37;;;;;;;;;;;22.20;58.40;;;;;;5092044;28;19924;-73
2023/06/09 09:53:03;;;;;;;;;;;22.10;58.80;;;;;;5087473;28;19929;-71
2023/06/09 09:55:29;;;;;;;;;;;22.20;59.40;;;;;;5088094;28;19948;-66
2023/06/09 09:57:56;;;;;;;;;;;22.20;59.30;;;;;;5117523;27;19950;-69
2023/06/09 10:00:21;;;;;;;;;;;22.20;59.30;;;;;;5091835;28;19968;-69
2023/06/09 10:02:50;;;;;;;;;;;22.30;59.30;;;;;;5121176;27;20416;-70
2023/06/09 10:05:17;;;;;;;;;;;22.30;59.50;;;;;;5091741;28;19921;-69
2023/06/09 10:07:42;;;;;;;;;;;22.40;59.40;;;;;;5120562;27;19920;-68
2023/06/09 10:10:08;;;;;;;;;;;22.40;59.50;;;;;;5088991;28;19928;-68
2023/06/09 10:12:36;;;;;;;;;;;22.50;59.20;;;;;;5087030;28;19931;-71
2023/06/09 10:15:02;;;;;;;;;;;22.50;59.30;;;;;;5122460;27;20014;-68
2023/06/09 10:17:28;;;;;;;;;;;22.50;59.20;;;;;;5090418;28;20383;-70
2023/06/09 10:19:55;;;;;;;;;;;22.60;59.10;;;;;;5088894;28;19974;-73
2023/06/09 10:22:21;;;;;;;;;;;22.60;59.10;;;;;;5091437;28;19921;-72
2023/06/09 10:24:46;;;;;;;;;;;22.60;58.80;;;;;;5093931;28;19920;-72
2023/06/09 10:27:13;;;;;;;;;;;22.60;58.60;;;;;;5092852;28;19924;-72
2023/06/09 10:29:38;;;;;;;;;;;22.60;58.50;;;;;;5092759;28;19966;-72
2023/06/09 10:32:05;;;;;;;;;;;22.60;58.50;;;;;;5098458;28;20271;-71
2023/06/09 10:34:32;;;;;;;;;;;22.60;58.20;;;;;;5095917;28;19920;-71
2023/06/09 10:36:59;;;;;;;;;;;22.60;58.20;;;;;;5122860;27;19930;-74
2023/06/09 10:39:26;;;;;;;;;;;22.60;58.10;;;;;;5090873;28;20023;-71
2023/06/09 10:41:59;;;;;;;;;;;22.60;58.10;;;;;;5093905;28;20295;-72
2023/06/09 10:44:29;;;;;;;;;;;22.70;58.10;;;;;;5080829;28;19971;-71
2023/06/09 10:46:55;;;;;;;;;;;22.70;58.00;;;;;;5077739;28;19946;-69
2023/06/09 10:52:03;;;;;;;;;;;22.70;58.20;;;;;;5078481;27;20295;-75
2023/06/09 10:54:30;;;;;;;;;;;22.60;58.10;;;;;;5072870;28;19960;-71
2023/06/09 10:57:00;;;;;;;;;;;22.70;58.40;;;;;;5073272;28;19968;-69
2023/06/09 11:04:49;;;;;;;;;;;22.80;59.10;;;;;;5093541;27;19926;-67
2023/06/09 11:15:18;;;;;;;;;;;22.80;59.20;;;;;;5071627;27;19920;-70
2023/06/09 11:17:46;;;;;;;;;;;22.80;59.30;;;;;;5092390;28;20254;-65
2023/06/09 11:20:14;;;;;;;;;;;22.80;59.40;;;;;;5068229;28;20019;-66
2023/06/09 11:30:59;;;;;;;;;;;23.00;59.20;;;;;;5065908;28;19922;-67
2023/06/09 11:33:45;;;;;;;;;;;23.10;58.80;;;;;;5067830;28;19928;-66
2023/06/09 11:36:15;;;;;;;;;;;23.00;58.50;;;;;;5068795;28;19928;-71
2023/06/09 11:38:41;;;;;;;;;;;23.00;58.40;;;;;;5062894;28;20366;-69
2023/06/09 11:41:09;;;;;;;;;;;23.00;58.50;;;;;;5063708;28;19928;-68
2023/06/09 11:43:35;;;;;;;;;;;23.00;58.40;;;;;;5064208;28;19936;-70
2023/06/09 11:46:01;;;;;;;;;;;23.00;58.30;;;;;;5063002;28;19921;-69
2023/06/09 11:48:27;;;;;;;;;;;23.00;58.20;;;;;;5066092;28;19944;-70
2023/06/09 11:50:52;;;;;;;;;;;23.00;58.30;;;;;;5068897;28;20295;-72
2023/06/09 11:53:20;;;;;;;;;;;23.00;58.30;;;;;;5065067;28;20457;-71
2023/06/09 11:55:46;;;;;;;;;;;22.90;58.20;;;;;;5068875;28;19920;-72
2023/06/09 11:58:12;;;;;;;;;;;22.90;58.10;;;;;;5066092;28;19927;-72
2023/06/09 12:00:39;;;;;;;;;;;22.90;58.20;;;;;;5057910;28;19924;-69
2023/06/09 12:03:05;;;;;;;;;;;22.90;58.30;;;;;;5062017;28;19931;-70
2023/06/09 12:05:30;;;;;;;;;;;22.90;58.20;;;;;;5062029;28;20291;-65
2023/06/09 12:07:56;;;;;;;;;;;22.90;58.20;;;;;;5067266;28;20049;-64
2023/06/09 12:10:24;;;;;;;;;;;22.90;57.60;;;;;;5056415;28;19998;-67
2023/06/09 12:12:50;;;;;;;;;;;22.90;57.40;;;;;;5060738;28;20402;-69
2023/06/09 12:15:17;;;;;;;;;;;23.00;57.50;;;;;;5078937;28;20002;-73
2023/06/09 12:17:44;;;;;;;;;;;23.00;57.60;;;;;;5063106;28;19928;-73
2023/06/09 12:23:06;;;;;;;;;;;23.10;57.90;;;;;;5077267;27;20380;-67
2023/06/09 12:25:33;;;;;;;;;;;23.20;57.80;;;;;;5068408;28;20527;-64
2023/06/09 12:28:19;;;;;;;;;;;23.20;57.90;;;;;;5071013;28;20054;-67
2023/06/09 12:33:26;;;;;;;;;;;23.30;57.80;;;;;;5076568;27;19921;-65
2023/06/09 12:35:52;;;;;;;;;;;23.40;57.90;;;;;;5078078;28;20255;-66
2023/06/09 12:38:19;;;;;;;;;;;23.50;58.10;;;;;;5092495;28;19929;-66
2023/06/09 12:40:46;;;;;;;;;;;23.50;58.60;;;;;;5078813;28;20238;-65
2023/06/09 12:43:12;;;;;;;;;;;23.60;57.50;;;;;;5081052;28;19924;-72
2023/06/09 12:45:40;;;;;;;;;;;23.60;57.20;;;;;;5079627;28;19928;-69
2023/06/09 12:48:06;;;;;;;;;;;23.60;57.20;;;;;;5087304;28;20319;-70
2023/06/09 12:50:31;;;;;;;;;;;23.60;57.40;;;;;;5076362;28;19920;-74
2023/06/09 12:52:57;;;;;;;;;;;23.60;57.40;;;;;;5077492;28;20383;-69
2023/06/09 12:55:23;;;;;;;;;;;23.50;57.30;;;;;;5076981;28;19927;-66
2023/06/09 12:57:48;;;;;;;;;;;23.50;57.30;;;;;;5076452;28;19924;-66
2023/06/09 13:00:14;;;;;;;;;;;23.50;57.10;;;;;;5076960;28;19924;-65
2023/06/09 13:02:44;;;;;;;;;;;23.60;57.30;;;;;;5077287;28;19927;-69
2023/06/09 13:05:09;;;;;;;;;;;23.60;57.10;;;;;;5082374;28;20100;-68
2023/06/09 13:07:35;;;;;;;;;;;23.60;56.70;;;;;;5082747;28;19985;-68
2023/06/09 13:10:00;;;;;;;;;;;23.60;56.50;;;;;;5079712;28;19998;-68
2023/06/09 13:12:26;;;;;;;;;;;23.70;56.20;;;;;;5082973;28;19924;-67
2023/06/09 13:14:51;;;;;;;;;;;23.70;56.10;;;;;;5081673;28;19969;-67
2023/06/09 13:17:17;;;;;;;;;;;23.70;55.70;;;;;;5084333;28;19973;-67
2023/06/09 13:19:42;;;;;;;;;;;23.70;56.00;;;;;;5085141;28;19927;-67
2023/06/09 13:22:08;;;;;;;;;;;23.70;56.40;;;;;;5083196;28;19945;-67
2023/06/09 13:24:33;;;;;;;;;;;23.70;56.00;;;;;;5084284;28;19921;-67
2023/06/09 13:26:59;;;;;;;;;;;23.70;56.70;;;;;;5087962;28;19935;-67
2023/06/09 13:29:24;;;;;;;;;;;23.60;56.70;;;;;;5107648;28;20242;-67
2023/06/09 13:31:50;;;;;;;;;;;23.60;56.90;;;;;;5084157;28;19924;-67
2023/06/09 13:34:15;;;;;;;;;;;23.60;55.90;;;;;;5083093;28;20058;-67
2023/06/09 13:36:41;;;;;;;;;;;23.60;56.20;;;;;;5085489;28;20061;-67
2023/06/09 13:39:07;;;;;;;;;;;23.60;56.70;;;;;;5083733;28;19977;-67
2023/06/09 13:41:32;;;;;;;;;;;23.50;56.90;;;;;;5084802;28;20026;-67
2023/06/09 13:43:59;;;;;;;;;;;23.50;56.70;;;;;;5075345;28;19926;-67
2023/06/09 13:46:25;;;;;;;;;;;23.50;56.40;;;;;;5065719;28;19993;-68
2023/06/09 13:48:51;;;;;;;;;;;23.50;56.40;;;;;;5065366;28;19924;-67
2023/06/09 13:51:16;;;;;;;;;;;23.50;56.50;;;;;;5070702;28;20573;-67
2023/06/09 13:53:41;;;;;;;;;;;23.50;55.70;;;;;;5070430;28;19924;-67
2023/06/09 13:56:07;;;;;;;;;;;23.50;56.60;;;;;;5073061;28;20388;-68
2023/06/09 13:58:33;;;;;;;;;;;23.50;57.10;;;;;;5069948;28;20337;-67
2023/06/09 14:00:58;;;;;;;;;;;23.50;56.10;;;;;;5070555;28;20030;-68
2023/06/09 14:03:24;;;;;;;;;;;23.50;55.80;;;;;;5066209;28;20372;-67
2023/06/09 14:05:49;;;;;;;;;;;23.50;56.20;;;;;;5069510;28;19951;-68
2023/06/09 14:08:15;;;;;;;;;;;23.50;55.70;;;;;;5071173;28;20254;-68
2023/06/09 14:10:41;;;;;;;;;;;23.50;56.20;;;;;;5070464;28;19942;-68
2023/06/09 14:13:06;;;;;;;;;;;23.50;55.50;;;;;;5071259;28;20256;-68
2023/06/09 14:15:32;;;;;;;;;;;23.50;56.50;;;;;;5072967;28;19962;-68
2023/06/09 14:17:58;;;;;;;;;;;23.50;55.60;;;;;;5071342;28;19928;-68
2023/06/09 14:20:26;;;;;;;;;;;23.50;56.30;;;;;;5069521;28;20283;-68
2023/06/09 14:22:51;;;;;;;;;;;23.50;56.40;;;;;;5068170;28;19920;-68
2023/06/09 14:25:20;;;;;;;;;;;23.50;56.50;;;;;;5071349;28;19931;-67
2023/06/09 14:27:46;;;;;;;;;;;23.50;56.50;;;;;;5061645;28;19920;-67
2023/06/09 14:30:14;;;;;;;;;;;23.50;55.50;;;;;;5061529;28;20288;-67
2023/06/09 14:32:41;;;;;;;;;;;23.50;55.30;;;;;;5068597;28;19932;-67
2023/06/09 14:35:07;;;;;;;;;;;23.50;55.70;;;;;;5104127;28;19966;-68
2023/06/09 14:37:32;;;;;;;;;;;23.50;56.30;;;;;;5069438;28;20026;-68
2023/06/09 14:39:57;;;;;;;;;;;23.50;55.40;;;;;;5070184;28;19920;-67
2023/06/09 14:42:23;;;;;;;;;;;23.50;55.20;;;;;;5070260;28;20075;-68
2023/06/09 14:44:49;;;;;;;;;;;23.50;56.10;;;;;;5084542;28;19920;-67
2023/06/09 14:47:14;;;;;;;;;;;23.50;55.20;;;;;;5086517;28;19920;-67
2023/06/09 14:49:40;;;;;;;;;;;23.60;56.00;;;;;;5069564;28;19927;-68